CES5166 ZUCK-ZJSY
Flight info
| Callsign | CES5166 |
|---|---|
| Flight time | N/A |
| Altitude | 33100 |
| Route | VILUS W180 ELBAV W181 DUDIT A599 LBN W159 BHY W70 NYB G221 WL |
| Aircraft | B77W/H-SDE1E2E3FGHIJ2J3J4J5M1RWXY/LB1D1 |
Departure
| Time | 2026-04-30 12:00 |
|---|---|
| Airport | Chongqing Jiangbei International Airport (ZUCK) |
Arrival
| Time | N/A |
|---|---|
| Airport | Sanya Phoenix International Airport (ZJSY) |
| Time | Latitude | Longitude | Altitude | Speed | Heading |
|---|---|---|---|---|---|
| 2026-04-30 10:44 | 29.73231 | 106.66104 | 1339 ft | 0 kts | 343° |
| 2026-04-30 11:45 | 29.73222 | 106.66107 | 1339 ft | 4 kts | 343° |
| 2026-04-30 11:45 | 29.73196 | 106.66116 | 1345 ft | 4 kts | 343° |
| 2026-04-30 11:46 | 29.73172 | 106.66124 | 1344 ft | 4 kts | 349° |
| 2026-04-30 11:46 | 29.73149 | 106.66126 | 1341 ft | 4 kts | 18° |
| 2026-04-30 11:46 | 29.73130 | 106.66114 | 1345 ft | 4 kts | 50° |
| 2026-04-30 11:46 | 29.73115 | 106.66089 | 1345 ft | 4 kts | 61° |
| 2026-04-30 11:47 | 29.73109 | 106.66077 | 1345 ft | 1 kts | 60° |
| 2026-04-30 11:47 | 29.73109 | 106.66076 | 1345 ft | 2 kts | 60° |
| 2026-04-30 11:52 | 29.73113 | 106.66084 | 1345 ft | 1 kts | 60° |
| 2026-04-30 11:52 | 29.73114 | 106.66087 | 1345 ft | 1 kts | 60° |
| 2026-04-30 11:52 | 29.73118 | 106.66094 | 1344 ft | 0 kts | 60° |
| 2026-04-30 11:53 | 29.73119 | 106.66096 | 1344 ft | 0 kts | 60° |
| 2026-04-30 11:54 | 29.73130 | 106.66118 | 1345 ft | 7 kts | 62° |
| 2026-04-30 11:54 | 29.73154 | 106.66190 | 1337 ft | 11 kts | 71° |
| 2026-04-30 11:54 | 29.73178 | 106.66284 | 1335 ft | 13 kts | 73° |
| 2026-04-30 11:54 | 29.73222 | 106.66360 | 1333 ft | 11 kts | 52° |
| 2026-04-30 11:55 | 29.73217 | 106.66438 | 1332 ft | 11 kts | 148° |
| 2026-04-30 11:55 | 29.73141 | 106.66426 | 1332 ft | 11 kts | 196° |
| 2026-04-30 11:55 | 29.73051 | 106.66395 | 1333 ft | 17 kts | 197° |
| 2026-04-30 11:55 | 29.72912 | 106.66348 | 1334 ft | 21 kts | 196° |
| 2026-04-30 11:56 | 29.72771 | 106.66299 | 1335 ft | 21 kts | 197° |
| 2026-04-30 11:56 | 29.72627 | 106.66249 | 1336 ft | 21 kts | 197° |
| 2026-04-30 11:56 | 29.72486 | 106.66201 | 1337 ft | 21 kts | 196° |
| 2026-04-30 11:56 | 29.72344 | 106.66151 | 1338 ft | 21 kts | 198° |
| 2026-04-30 11:57 | 29.72202 | 106.66100 | 1342 ft | 21 kts | 197° |
| 2026-04-30 11:57 | 29.72060 | 106.66049 | 1343 ft | 21 kts | 197° |
| 2026-04-30 11:57 | 29.71918 | 106.65998 | 1344 ft | 21 kts | 197° |
| 2026-04-30 11:57 | 29.71775 | 106.65949 | 1347 ft | 21 kts | 195° |
| 2026-04-30 11:58 | 29.71653 | 106.65909 | 1346 ft | 13 kts | 196° |
| 2026-04-30 11:58 | 29.71574 | 106.65882 | 1348 ft | 11 kts | 197° |
| 2026-04-30 11:58 | 29.71516 | 106.65899 | 1347 ft | 9 kts | 122° |
| 2026-04-30 11:58 | 29.71493 | 106.65971 | 1342 ft | 10 kts | 107° |
| 2026-04-30 11:59 | 29.71473 | 106.66050 | 1346 ft | 10 kts | 106° |
| 2026-04-30 11:59 | 29.71464 | 106.66131 | 1346 ft | 10 kts | 79° |
| 2026-04-30 11:59 | 29.71523 | 106.66173 | 1346 ft | 8 kts | 17° |
| 2026-04-30 11:59 | 29.71540 | 106.66179 | 1345 ft | 7 kts | 16° |
| 2026-04-30 12:00 | 29.71742 | 106.66248 | 1343 ft | 65 kts | 17° |
| 2026-04-30 12:00 | 29.72453 | 106.66494 | 1334 ft | 145 kts | 17° |
| 2026-04-30 12:00 | 29.73612 | 106.66897 | 1479 ft | 189 kts | 17° |
| 2026-04-30 12:00 | 29.74855 | 106.67329 | 2314 ft | 188 kts | 19° |
| 2026-04-30 12:01 | 29.76149 | 106.67768 | 3071 ft | 198 kts | 19° |
| 2026-04-30 12:01 | 29.77395 | 106.68433 | 3703 ft | 200 kts | 37° |
| 2026-04-30 12:01 | 29.78555 | 106.69323 | 3974 ft | 203 kts | 36° |
| 2026-04-30 12:01 | 29.79779 | 106.70216 | 4409 ft | 218 kts | 35° |
| 2026-04-30 12:02 | 29.81157 | 106.71209 | 4653 ft | 251 kts | 34° |
| 2026-04-30 12:02 | 29.82720 | 106.72326 | 5085 ft | 273 kts | 34° |
| 2026-04-30 12:02 | 29.84357 | 106.73491 | 5972 ft | 277 kts | 35° |
| 2026-04-30 12:02 | 29.85698 | 106.75024 | 6680 ft | 280 kts | 64° |
| 2026-04-30 12:03 | 29.86156 | 106.77167 | 7448 ft | 281 kts | 95° |
| 2026-04-30 12:03 | 29.85264 | 106.81376 | 8992 ft | 289 kts | 110° |
| 2026-04-30 12:03 | 29.84665 | 106.83613 | 9794 ft | 296 kts | 110° |
| 2026-04-30 12:04 | 29.84043 | 106.85906 | 10567 ft | 302 kts | 110° |
| 2026-04-30 12:04 | 29.83417 | 106.88227 | 11440 ft | 307 kts | 110° |
| 2026-04-30 12:04 | 29.82768 | 106.90649 | 11969 ft | 330 kts | 109° |
| 2026-04-30 12:04 | 29.82061 | 106.93295 | 12224 ft | 362 kts | 109° |
| 2026-04-30 12:05 | 29.81231 | 106.96134 | 12428 ft | 383 kts | 117° |
| 2026-04-30 12:05 | 29.79634 | 106.98620 | 13063 ft | 392 kts | 140° |
| 2026-04-30 12:05 | 29.77334 | 107.00282 | 13715 ft | 393 kts | 160° |
| 2026-04-30 12:05 | 29.74665 | 107.00881 | 13722 ft | 392 kts | 183° |
| 2026-04-30 12:06 | 29.72023 | 107.00261 | 13919 ft | 388 kts | 199° |
| 2026-04-30 12:06 | 29.69422 | 106.99281 | 14641 ft | 394 kts | 199° |
| 2026-04-30 12:06 | 29.66809 | 106.98340 | 15675 ft | 394 kts | 199° |
| 2026-04-30 12:06 | 29.64163 | 106.97411 | 16509 ft | 400 kts | 198° |
| 2026-04-30 12:07 | 29.61483 | 106.96492 | 17287 ft | 406 kts | 197° |
| 2026-04-30 12:07 | 29.58656 | 106.96013 | 18065 ft | 416 kts | 185° |
| 2026-04-30 12:07 | 29.55749 | 106.95984 | 18818 ft | 420 kts | 182° |
| 2026-04-30 12:07 | 29.52810 | 106.96022 | 19560 ft | 424 kts | 181° |
| 2026-04-30 12:08 | 29.49844 | 106.96059 | 20266 ft | 429 kts | 182° |
| 2026-04-30 12:08 | 29.46843 | 106.96073 | 20951 ft | 434 kts | 182° |
| 2026-04-30 12:08 | 29.43808 | 106.96064 | 21652 ft | 438 kts | 182° |
| 2026-04-30 12:08 | 29.40743 | 106.96039 | 22346 ft | 443 kts | 182° |
| 2026-04-30 12:09 | 29.34480 | 106.95964 | 23634 ft | 452 kts | 183° |
| 2026-04-30 12:09 | 29.31311 | 106.95923 | 24139 ft | 458 kts | 183° |
| 2026-04-30 12:09 | 29.28113 | 106.95883 | 24658 ft | 462 kts | 183° |
| 2026-04-30 12:10 | 29.24898 | 106.95843 | 25178 ft | 466 kts | 184° |
| 2026-04-30 12:10 | 29.21637 | 106.95803 | 25697 ft | 471 kts | 184° |
| 2026-04-30 12:10 | 29.18348 | 106.95764 | 26193 ft | 475 kts | 184° |
| 2026-04-30 12:10 | 29.15020 | 106.95723 | 26682 ft | 480 kts | 184° |
| 2026-04-30 12:11 | 29.11666 | 106.95683 | 27163 ft | 484 kts | 184° |
| 2026-04-30 12:11 | 29.08282 | 106.95642 | 27640 ft | 489 kts | 185° |
| 2026-04-30 12:11 | 29.04873 | 106.95598 | 28101 ft | 493 kts | 185° |
| 2026-04-30 12:11 | 29.01427 | 106.95551 | 28534 ft | 497 kts | 185° |
| 2026-04-30 12:12 | 28.97953 | 106.95505 | 28928 ft | 501 kts | 185° |
| 2026-04-30 12:12 | 28.94459 | 106.95460 | 29353 ft | 504 kts | 185° |
| 2026-04-30 12:12 | 28.90938 | 106.95415 | 29752 ft | 508 kts | 185° |
| 2026-04-30 12:12 | 28.87399 | 106.95370 | 30199 ft | 509 kts | 185° |
| 2026-04-30 12:13 | 28.83867 | 106.95326 | 30724 ft | 507 kts | 185° |
| 2026-04-30 12:13 | 28.80352 | 106.95283 | 31275 ft | 504 kts | 185° |
| 2026-04-30 12:13 | 28.76858 | 106.95239 | 31855 ft | 501 kts | 185° |
| 2026-04-30 12:13 | 28.73374 | 106.95194 | 32378 ft | 500 kts | 185° |
| 2026-04-30 12:14 | 28.69903 | 106.95149 | 32882 ft | 499 kts | 185° |
| 2026-04-30 12:14 | 28.66432 | 106.95103 | 33147 ft | 499 kts | 186° |
| 2026-04-30 12:14 | 28.64085 | 106.95073 | 33105 ft | 499 kts | 185° |
| 2026-04-30 12:15 | 28.57143 | 106.94990 | 33125 ft | 500 kts | 185° |
| 2026-04-30 12:15 | 28.49034 | 106.94895 | 33138 ft | 501 kts | 185° |
| 2026-04-30 12:16 | 28.43237 | 106.94827 | 33131 ft | 502 kts | 185° |
| 2026-04-30 12:16 | 28.36252 | 106.94745 | 33138 ft | 503 kts | 185° |
| 2026-04-30 12:17 | 28.24621 | 106.94609 | 33150 ft | 503 kts | 185° |
| 2026-04-30 12:17 | 28.17586 | 106.94904 | 33149 ft | 506 kts | 181° |
| 2026-04-30 12:18 | 28.11705 | 106.95284 | 33155 ft | 506 kts | 182° |
| 2026-04-30 12:18 | 28.04720 | 106.95681 | 33144 ft | 505 kts | 182° |
| 2026-04-30 12:19 | 27.97707 | 106.96090 | 33147 ft | 505 kts | 182° |
| 2026-04-30 12:19 | 27.93520 | 106.96326 | 33151 ft | 504 kts | 182° |